createdAt,value
2017-11-17T00:00:37.841Z,24.12
2017-11-17T00:03:07.469Z,21.50
2017-11-17T00:05:37.039Z,25.20
2017-11-17T00:08:06.075Z,23.33
2017-11-17T00:10:35.846Z,24.87
2017-11-17T00:13:04.662Z,26.27
2017-11-17T00:15:35.230Z,23.33
2017-11-17T00:18:04.033Z,24.85
2017-11-17T00:20:32.891Z,23.80
2017-11-17T00:23:02.454Z,25.65
2017-11-17T00:25:31.292Z,22.73
2017-11-17T00:28:00.097Z,26.20
2017-11-17T00:30:28.909Z,25.02
2017-11-17T00:32:57.713Z,25.35
2017-11-17T00:35:26.514Z,24.58
2017-11-17T00:37:55.366Z,23.12
2017-11-17T00:40:24.580Z,23.40
2017-11-17T00:42:53.377Z,22.87
2017-11-17T00:45:22.226Z,25.02
2017-11-17T00:47:51.038Z,23.60
2017-11-17T00:50:19.887Z,23.48
2017-11-17T00:52:49.450Z,26.15
2017-11-17T00:55:18.303Z,27.48
2017-11-17T00:57:47.123Z,27.40
2017-11-17T01:00:15.932Z,26.65
2017-11-17T01:02:44.778Z,26.35
2017-11-17T01:05:14.251Z,26.02
2017-11-17T01:07:43.855Z,27.73
2017-11-17T01:10:13.438Z,28.35
2017-11-17T01:12:42.274Z,26.35
2017-11-17T01:15:11.854Z,25.88
2017-11-17T01:17:40.681Z,25.48
2017-11-17T01:20:09.503Z,27.48
2017-11-17T01:22:38.314Z,24.52
2017-11-17T01:25:11.440Z,26.17
2017-11-17T01:27:41.563Z,25.90
2017-11-17T01:30:11.188Z,25.08
2017-11-17T01:32:40.772Z,25.23
2017-11-17T01:35:10.390Z,26.75
2017-11-17T01:37:39.949Z,25.45
2017-11-17T01:40:08.753Z,24.40
2017-11-17T01:42:37.589Z,25.67
2017-11-17T01:45:06.410Z,24.40
2017-11-17T01:47:35.283Z,23.65
2017-11-17T01:50:04.103Z,24.27
2017-11-17T01:52:32.908Z,25.20
2017-11-17T01:55:02.514Z,24.70
2017-11-17T01:57:31.047Z,24.10
2017-11-17T02:00:00.173Z,25.92
2017-11-17T02:02:29.009Z,24.37
2017-11-17T02:04:59.222Z,22.58
2017-11-17T02:07:28.022Z,25.75
2017-11-17T02:10:04.611Z,24.60
2017-11-17T02:12:33.423Z,25.12
2017-11-17T02:15:02.277Z,25.08
2017-11-17T02:17:31.719Z,25.15
2017-11-17T02:20:00.223Z,23.45
2017-11-17T02:22:28.790Z,24.75
2017-11-17T02:24:56.975Z,26.20
2017-11-17T02:27:25.544Z,24.70
2017-11-17T02:29:53.723Z,26.25
2017-11-17T02:32:22.284Z,24.90
2017-11-17T02:34:51.095Z,23.52
2017-11-17T02:37:19.699Z,25.08
2017-11-17T02:39:48.583Z,24.95
2017-11-17T02:42:17.120Z,26.65
2017-11-17T02:44:46.747Z,25.75
2017-11-17T02:47:14.943Z,24.15
2017-11-17T02:49:43.910Z,26.20
2017-11-17T02:52:12.099Z,25.25
2017-11-17T02:54:40.344Z,25.23
2017-11-17T02:57:09.635Z,24.48
2017-11-17T02:59:38.907Z,24.35
2017-11-17T03:02:07.763Z,23.67
2017-11-17T03:04:36.551Z,26.35
2017-11-17T03:07:05.107Z,26.10
2017-11-17T03:09:34.699Z,24.55
2017-11-17T03:12:03.237Z,24.70
2017-11-17T03:14:32.041Z,25.08
2017-11-17T03:17:00.887Z,23.95
2017-11-17T03:19:30.491Z,23.58
2017-11-17T03:22:00.087Z,24.12
2017-11-17T03:24:28.923Z,24.00
2017-11-17T03:26:57.099Z,25.15
2017-11-17T03:29:25.323Z,23.65
2017-11-17T03:31:53.900Z,24.35
2017-11-17T03:34:22.763Z,24.50
2017-11-17T03:36:51.588Z,23.08
2017-11-17T03:39:20.426Z,24.40
2017-11-17T03:41:48.915Z,22.98
2017-11-17T03:44:17.426Z,21.55
2017-11-17T03:46:45.662Z,21.65
2017-11-17T03:49:14.519Z,21.37
2017-11-17T03:51:44.148Z,21.02
2017-11-17T03:54:12.960Z,22.30
2017-11-17T03:56:41.810Z,23.35
2017-11-17T03:59:12.766Z,22.37
2017-11-17T04:01:41.611Z,21.58
2017-11-17T04:04:10.421Z,24.83
2017-11-17T04:06:39.232Z,25.20
2017-11-17T04:09:08.110Z,23.55
2017-11-17T04:11:37.698Z,23.42
2017-11-17T04:14:06.575Z,25.85
2017-11-17T04:16:35.412Z,25.60
2017-11-17T04:19:04.304Z,22.40
2017-11-17T04:21:33.491Z,23.98
2017-11-17T04:24:03.126Z,22.52
2017-11-17T04:26:32.860Z,22.42
2017-11-17T04:29:01.692Z,23.12
2017-11-17T04:31:30.539Z,22.05
2017-11-17T04:33:59.363Z,24.02
2017-11-17T04:36:28.222Z,25.15
2017-11-17T04:38:57.028Z,23.40
2017-11-17T04:41:26.134Z,22.80
2017-11-17T04:43:54.954Z,23.40
2017-11-17T04:46:24.595Z,27.15
2017-11-17T04:48:53.451Z,24.77
2017-11-17T04:51:23.015Z,24.92
2017-11-17T04:53:51.867Z,23.30
2017-11-17T04:56:20.704Z,23.73
2017-11-17T04:58:49.612Z,23.48
2017-11-17T05:01:18.428Z,23.10
2017-11-17T05:03:48.051Z,24.58
2017-11-17T05:06:16.850Z,25.05
2017-11-17T05:08:45.659Z,23.48
2017-11-17T05:11:14.486Z,24.73
2017-11-17T05:13:44.054Z,22.73
2017-11-17T05:16:12.905Z,23.42
2017-11-17T05:18:41.726Z,22.87
2017-11-17T05:21:10.546Z,22.62
2017-11-17T05:23:39.351Z,21.35
2017-11-17T05:26:08.167Z,25.17
2017-11-17T05:28:36.974Z,23.73
2017-11-17T05:31:05.776Z,24.12
2017-11-17T05:33:34.658Z,23.25
2017-11-17T05:36:03.464Z,23.92
2017-11-17T05:38:32.329Z,25.60
2017-11-17T05:41:01.896Z,25.05
2017-11-17T05:43:30.700Z,25.25
2017-11-17T05:48:37.162Z,26.05
2017-11-17T05:51:06.056Z,25.08
2017-11-17T05:53:35.642Z,25.62
2017-11-17T05:56:04.450Z,24.50
2017-11-17T05:58:34.003Z,24.90
2017-11-17T06:01:02.696Z,23.77
2017-11-17T06:03:31.499Z,27.02
2017-11-17T06:06:00.308Z,26.80
2017-11-17T06:08:29.112Z,24.10
2017-11-17T06:10:57.920Z,25.15
2017-11-17T06:13:26.715Z,26.83
2017-11-17T06:15:55.521Z,27.90
2017-11-17T06:18:25.085Z,25.73
2017-11-17T06:20:53.927Z,26.33
2017-11-17T06:23:24.442Z,26.15
2017-11-17T06:25:54.009Z,26.52
2017-11-17T06:28:22.860Z,27.75
2017-11-17T06:30:51.669Z,27.35
2017-11-17T06:33:20.520Z,26.60
2017-11-17T06:35:50.107Z,27.45
2017-11-17T06:38:18.939Z,25.85
2017-11-17T06:40:48.504Z,25.83
2017-11-17T06:43:17.344Z,26.83
2017-11-17T06:45:46.139Z,26.90
2017-11-17T06:48:14.939Z,26.02
2017-11-17T06:50:43.787Z,29.52
2017-11-17T06:53:13.346Z,27.58
2017-11-17T06:55:42.176Z,26.55
2017-11-17T06:58:13.695Z,27.27
2017-11-17T07:00:42.579Z,27.35
2017-11-17T07:03:11.386Z,27.95
2017-11-17T07:05:40.194Z,26.52
2017-11-17T07:08:09.043Z,28.52
2017-11-17T07:10:37.856Z,27.90
2017-11-17T07:13:06.691Z,28.00
2017-11-17T07:15:36.261Z,27.60
2017-11-17T07:18:05.110Z,26.87
2017-11-17T07:20:33.910Z,27.77
2017-11-17T07:23:02.718Z,29.70
2017-11-17T07:25:39.029Z,28.95
2017-11-17T07:28:17.278Z,27.05
2017-11-17T07:30:47.459Z,28.05
2017-11-17T07:33:17.350Z,29.20
2017-11-17T07:35:46.142Z,32.10
2017-11-17T07:38:14.978Z,28.42
2017-11-17T07:40:43.786Z,28.83
2017-11-17T07:43:12.632Z,31.12
2017-11-17T07:45:42.200Z,29.70
2017-11-17T07:48:11.040Z,28.45
2017-11-17T07:50:39.851Z,29.80
2017-11-17T07:53:08.655Z,30.35
2017-11-17T07:55:37.497Z,28.65
2017-11-17T07:58:07.068Z,27.23
2017-11-17T08:00:35.914Z,28.73
2017-11-17T08:03:04.723Z,28.90
2017-11-17T08:05:33.537Z,28.58
2017-11-17T08:08:02.342Z,31.92
2017-11-17T08:10:31.179Z,27.42
2017-11-17T08:12:59.976Z,29.40
2017-11-17T08:15:28.779Z,27.45
2017-11-17T08:18:08.741Z,28.25
2017-11-17T08:20:37.258Z,28.62
2017-11-17T08:23:06.818Z,27.50
2017-11-17T08:25:35.608Z,26.30
2017-11-17T08:28:04.479Z,28.33
2017-11-17T08:30:33.295Z,30.17
2017-11-17T08:33:02.091Z,28.90
2017-11-17T08:35:30.931Z,28.20
2017-11-17T08:38:00.531Z,28.75
2017-11-17T08:40:30.147Z,28.50
2017-11-17T08:42:59.715Z,28.77
2017-11-17T08:45:28.528Z,30.65
2017-11-17T08:47:57.334Z,28.62
2017-11-17T08:50:26.622Z,27.50
2017-11-17T08:52:55.460Z,26.52
2017-11-17T08:55:24.279Z,26.40
2017-11-17T08:57:53.119Z,26.60
2017-11-17T09:00:22.389Z,26.60
2017-11-17T09:02:51.980Z,26.45
2017-11-17T09:05:20.810Z,24.85
2017-11-17T09:07:50.366Z,25.80
2017-11-17T09:10:19.215Z,20.48
2017-11-17T09:12:48.012Z,22.60
2017-11-17T09:15:17.863Z,22.25
2017-11-17T09:17:46.658Z,22.42
2017-11-17T09:20:15.453Z,26.40
2017-11-17T09:22:44.305Z,22.17
2017-11-17T09:25:13.101Z,21.80
2017-11-17T09:27:42.211Z,21.48
2017-11-17T09:30:10.698Z,23.42
2017-11-17T09:32:39.767Z,21.33
2017-11-17T09:35:10.330Z,22.23
2017-11-17T09:37:39.135Z,21.00
2017-11-17T09:40:07.991Z,19.95
2017-11-17T09:42:37.559Z,20.02
2017-11-17T09:45:07.196Z,20.62
2017-11-17T09:47:36.011Z,19.65
2017-11-17T09:50:04.893Z,19.08
2017-11-17T09:52:33.709Z,19.85
2017-11-17T09:55:02.552Z,19.55
2017-11-17T09:57:31.372Z,18.50
2017-11-17T10:00:00.218Z,19.75
2017-11-17T10:02:30.674Z,18.85
2017-11-17T10:04:59.478Z,17.50
2017-11-17T10:07:28.327Z,19.27
2017-11-17T10:09:59.664Z,20.67
2017-11-17T10:12:29.539Z,19.42
2017-11-17T10:14:58.384Z,21.92
2017-11-17T10:17:27.956Z,18.98
2017-11-17T10:19:56.889Z,20.70
2017-11-17T10:22:25.716Z,19.50
2017-11-17T10:24:54.559Z,21.77
2017-11-17T10:27:24.121Z,20.27
2017-11-17T10:29:52.983Z,20.85
2017-11-17T10:32:22.538Z,19.27
2017-11-17T10:34:51.347Z,21.05
2017-11-17T10:37:20.998Z,20.70
2017-11-17T10:39:49.198Z,21.02
2017-11-17T10:42:18.017Z,22.35
2017-11-17T10:44:46.518Z,21.12
2017-11-17T10:47:15.376Z,22.52
2017-11-17T10:49:44.213Z,23.08
2017-11-17T10:52:13.062Z,20.85
2017-11-17T10:54:41.570Z,19.75
2017-11-17T10:57:11.148Z,21.20
2017-11-17T10:59:40.068Z,21.95
2017-11-17T11:02:09.640Z,22.30
2017-11-17T11:04:40.430Z,23.67
2017-11-17T11:07:09.220Z,23.40
2017-11-17T11:09:38.717Z,23.90
2017-11-17T11:12:08.283Z,22.58
2017-11-17T11:14:37.085Z,24.00
2017-11-17T11:17:06.720Z,24.35
2017-11-17T11:19:35.521Z,22.33
2017-11-17T11:22:04.056Z,23.77
2017-11-17T11:24:32.850Z,23.50
2017-11-17T11:27:01.701Z,25.50
2017-11-17T11:29:30.723Z,25.30
2017-11-17T11:31:59.550Z,26.80
2017-11-17T11:34:29.158Z,24.70
2017-11-17T11:36:58.755Z,23.90
2017-11-17T11:39:28.335Z,25.25
2017-11-17T11:41:57.167Z,23.67
2017-11-17T11:44:26.775Z,24.00
2017-11-17T11:46:56.343Z,25.23
2017-11-17T11:49:25.137Z,25.20
2017-11-17T11:51:53.944Z,21.95
2017-11-17T11:54:22.769Z,23.73
2017-11-17T11:56:51.643Z,23.62
2017-11-17T11:59:21.200Z,22.83
2017-11-17T12:01:50.066Z,24.52
2017-11-17T12:04:18.867Z,24.10
2017-11-17T12:06:47.741Z,22.98
2017-11-17T12:09:17.466Z,22.20
2017-11-17T12:11:46.258Z,23.55
2017-11-17T12:14:15.111Z,22.60
2017-11-17T12:16:44.687Z,24.92
2017-11-17T12:19:13.524Z,22.52
2017-11-17T12:21:42.323Z,22.65
2017-11-17T12:24:11.184Z,20.30
2017-11-17T12:26:40.742Z,24.58
2017-11-17T12:29:09.420Z,23.48
2017-11-17T12:31:38.230Z,23.27
2017-11-17T12:34:07.027Z,22.65
2017-11-17T12:36:35.879Z,24.48
2017-11-17T12:39:04.066Z,24.83
2017-11-17T12:41:32.930Z,23.62
2017-11-17T12:44:02.492Z,23.33
2017-11-17T12:46:32.678Z,22.37
2017-11-17T12:49:01.482Z,21.05
2017-11-17T12:51:30.896Z,22.00
2017-11-17T12:53:59.749Z,23.38
2017-11-17T12:56:28.547Z,16.90
2017-11-17T12:58:57.420Z,16.55
2017-11-17T13:01:26.982Z,16.23
2017-11-17T13:03:55.552Z,15.00
2017-11-17T13:06:24.379Z,15.30
2017-11-17T13:08:53.458Z,15.07
2017-11-17T13:11:22.299Z,13.77
2017-11-17T13:13:51.101Z,16.15
2017-11-17T13:16:19.956Z,15.15
2017-11-17T13:18:49.520Z,13.02
2017-11-17T13:21:18.362Z,13.25
2017-11-17T13:23:47.927Z,11.63
2017-11-17T13:26:16.783Z,12.13
2017-11-17T13:28:45.587Z,12.82
2017-11-17T13:31:15.036Z,11.88
2017-11-17T13:33:44.665Z,11.50
2017-11-17T13:36:13.480Z,13.02
2017-11-17T13:38:42.334Z,12.23
2017-11-17T13:41:11.128Z,12.15
2017-11-17T13:43:40.750Z,11.43
2017-11-17T13:46:09.551Z,10.55
2017-11-17T13:48:38.435Z,10.07
2017-11-17T13:51:07.398Z,9.20
2017-11-17T13:53:36.967Z,8.18
2017-11-17T13:56:05.796Z,7.05
2017-11-17T13:58:34.591Z,6.90
2017-11-17T14:01:03.392Z,7.37
2017-11-17T14:03:32.968Z,6.03
2017-11-17T14:06:01.653Z,5.80
2017-11-17T14:08:30.514Z,6.78
2017-11-17T14:10:59.319Z,6.75
2017-11-17T14:13:28.148Z,6.40
2017-11-17T14:15:56.960Z,6.97
2017-11-17T14:18:25.494Z,6.75
2017-11-17T14:20:54.299Z,6.53
2017-11-17T14:23:23.156Z,6.37
2017-11-17T14:25:51.956Z,7.03
2017-11-17T14:28:20.819Z,7.25
2017-11-17T14:30:49.634Z,7.00
2017-11-17T14:33:18.562Z,7.85
2017-11-17T14:35:47.092Z,7.85
2017-11-17T14:38:15.970Z,6.90
2017-11-17T14:40:44.831Z,7.22
2017-11-17T14:43:13.625Z,6.37
2017-11-17T14:45:43.232Z,6.93
2017-11-17T14:48:12.800Z,6.25
2017-11-17T14:50:41.644Z,6.50
2017-11-17T14:53:10.464Z,7.22
2017-11-17T14:55:39.255Z,7.80
2017-11-17T14:58:07.986Z,6.82
2017-11-17T15:00:36.350Z,7.70
2017-11-17T15:03:05.206Z,6.43
2017-11-17T15:05:34.040Z,5.82
2017-11-17T15:08:03.164Z,7.40
2017-11-17T15:10:32.767Z,6.93
2017-11-17T15:13:01.790Z,7.95
2017-11-17T15:15:30.631Z,7.85
2017-11-17T15:17:59.454Z,8.70
2017-11-17T15:20:29.044Z,9.15
2017-11-17T15:22:58.310Z,7.97
2017-11-17T15:25:27.175Z,9.13
2017-11-17T15:27:56.296Z,8.60
2017-11-17T15:30:25.926Z,9.95
2017-11-17T15:32:54.734Z,8.82
2017-11-17T15:35:23.583Z,9.98
2017-11-17T15:37:52.378Z,9.63
2017-11-17T15:40:20.910Z,11.65
2017-11-17T15:42:50.656Z,9.60
2017-11-17T15:45:19.477Z,10.18
2017-11-17T15:47:48.345Z,11.05
2017-11-17T15:50:17.156Z,10.60
2017-11-17T15:52:46.762Z,9.50
2017-11-17T15:55:15.614Z,10.75
2017-11-17T15:57:44.463Z,10.02
2017-11-17T16:00:13.418Z,10.18
2017-11-17T16:02:44.449Z,11.02
2017-11-17T16:05:13.303Z,10.80
2017-11-17T16:07:42.909Z,9.80
2017-11-17T16:10:12.575Z,9.40
2017-11-17T16:12:41.398Z,11.98
2017-11-17T16:15:11.061Z,12.00
2017-11-17T16:17:39.895Z,11.68
2017-11-17T16:20:08.444Z,12.20
2017-11-17T16:22:38.047Z,10.98
2017-11-17T16:25:06.883Z,10.95
2017-11-17T16:27:36.629Z,12.85
2017-11-17T16:30:04.824Z,14.23
2017-11-17T16:32:33.698Z,12.00
2017-11-17T16:35:02.513Z,11.43
2017-11-17T16:37:31.377Z,11.93
2017-11-17T16:40:00.195Z,11.38
2017-11-17T16:42:28.694Z,11.10
2017-11-17T16:44:57.641Z,11.32
2017-11-17T16:47:26.166Z,11.10
2017-11-17T16:49:55.018Z,10.77
2017-11-17T16:52:23.519Z,10.43
2017-11-17T16:54:52.375Z,11.60
2017-11-17T16:57:21.196Z,11.48
2017-11-17T16:59:50.005Z,12.00
2017-11-17T17:02:18.838Z,11.35
2017-11-17T17:04:48.408Z,11.38
2017-11-17T17:07:17.311Z,10.07
2017-11-17T17:09:46.231Z,11.10
2017-11-17T17:12:15.579Z,10.90
2017-11-17T17:14:44.428Z,13.95
2017-11-17T17:17:13.264Z,12.00
2017-11-17T17:19:42.083Z,12.73
2017-11-17T17:22:10.900Z,13.80
2017-11-17T17:24:39.976Z,12.50
2017-11-17T17:27:08.783Z,13.68
2017-11-17T17:29:37.656Z,12.23
2017-11-17T17:32:07.236Z,13.45
2017-11-17T17:34:36.090Z,12.00
2017-11-17T17:37:04.918Z,13.35
2017-11-17T17:39:33.751Z,11.73
2017-11-17T17:42:03.347Z,13.43
2017-11-17T17:44:32.150Z,15.52
2017-11-17T17:47:01.722Z,15.07
2017-11-17T17:49:30.522Z,12.52
2017-11-17T17:51:59.380Z,11.90
2017-11-17T17:54:28.215Z,12.82
2017-11-17T17:56:57.840Z,12.40
2017-11-17T17:59:27.406Z,13.85
2017-11-17T18:01:55.655Z,13.52
2017-11-17T18:04:23.929Z,12.05
2017-11-17T18:06:52.816Z,11.73
2017-11-17T18:09:21.658Z,13.65
2017-11-17T18:11:50.487Z,14.50
2017-11-17T18:14:19.326Z,12.90
2017-11-17T18:16:48.132Z,13.05
2017-11-17T18:19:16.932Z,11.95
2017-11-17T18:21:46.560Z,12.82
2017-11-17T18:24:15.346Z,13.25
2017-11-17T18:26:45.481Z,13.75
2017-11-17T18:29:14.282Z,13.07
2017-11-17T18:31:43.138Z,13.45
2017-11-17T18:34:12.700Z,12.93
2017-11-17T18:36:41.546Z,14.68
2017-11-17T18:39:10.563Z,15.27
2017-11-17T18:41:39.423Z,14.73
2017-11-17T18:44:08.994Z,15.25
2017-11-17T18:46:37.816Z,15.60
2017-11-17T18:49:07.394Z,15.77
2017-11-17T18:51:36.210Z,16.42
2017-11-17T18:54:05.856Z,14.60
2017-11-17T18:56:34.811Z,14.02
2017-11-17T18:59:04.258Z,14.70
2017-11-17T19:01:33.308Z,14.77
2017-11-17T19:04:02.276Z,15.90
2017-11-17T19:06:33.154Z,19.20
2017-11-17T19:09:02.724Z,17.87
2017-11-17T19:11:31.868Z,16.80
2017-11-17T19:14:00.833Z,19.37
2017-11-17T19:16:29.836Z,15.82
2017-11-17T19:18:58.834Z,16.65
2017-11-17T19:21:28.398Z,16.60
2017-11-17T19:23:58.167Z,18.52
2017-11-17T19:26:27.217Z,17.83
2017-11-17T19:28:56.031Z,17.83
2017-11-17T19:31:24.818Z,18.50
2017-11-17T19:33:53.667Z,19.90
2017-11-17T19:36:22.467Z,20.73
2017-11-17T19:38:51.278Z,22.45
2017-11-17T19:41:20.124Z,20.60
2017-11-17T19:43:48.944Z,20.20
2017-11-17T19:46:17.796Z,21.73
2017-11-17T19:48:46.598Z,21.05
2017-11-17T19:51:15.391Z,22.58
2017-11-17T19:53:44.234Z,21.27
2017-11-17T19:56:13.794Z,20.10
2017-11-17T19:58:42.649Z,23.52
2017-11-17T20:01:11.460Z,22.20
2017-11-17T20:03:40.267Z,24.55
2017-11-17T20:06:09.123Z,23.60
2017-11-17T20:08:37.927Z,22.45
2017-11-17T20:11:06.762Z,26.00
2017-11-17T20:13:35.571Z,24.23
2017-11-17T20:16:04.439Z,21.20
2017-11-17T20:18:33.239Z,22.17
2017-11-17T20:21:02.052Z,25.02
2017-11-17T20:23:31.670Z,21.87
2017-11-17T20:26:01.275Z,26.42
2017-11-17T20:28:30.076Z,25.45
2017-11-17T20:30:58.869Z,25.70
2017-11-17T20:33:27.725Z,27.65
2017-11-17T20:35:56.527Z,24.08
2017-11-17T20:38:26.123Z,26.75
2017-11-17T20:40:54.928Z,24.15
2017-11-17T20:43:25.212Z,27.35
2017-11-17T20:45:54.017Z,23.70
2017-11-17T20:48:22.815Z,26.92
2017-11-17T20:50:52.423Z,24.87
2017-11-17T20:53:21.996Z,23.33
2017-11-17T20:55:50.874Z,23.08
2017-11-17T20:58:19.668Z,25.62
2017-11-17T21:00:49.288Z,21.77
2017-11-17T21:03:18.137Z,23.50
2017-11-17T21:05:46.950Z,22.90
2017-11-17T21:08:15.790Z,22.55
2017-11-17T21:10:44.586Z,20.92
2017-11-17T21:13:13.378Z,20.33
2017-11-17T21:15:42.987Z,24.95
2017-11-17T21:18:11.815Z,19.92
2017-11-17T21:20:40.782Z,18.37
2017-11-17T21:23:09.608Z,16.58
2017-11-17T21:25:38.449Z,17.75
2017-11-17T21:28:08.019Z,22.13
2017-11-17T21:30:36.829Z,18.42
2017-11-17T21:33:06.201Z,19.48
2017-11-17T21:35:35.958Z,18.33
2017-11-17T21:38:05.575Z,21.08
2017-11-17T21:40:35.147Z,19.45
2017-11-17T21:43:03.955Z,19.48
2017-11-17T21:45:32.813Z,18.25
2017-11-17T21:48:01.612Z,16.58
2017-11-17T21:50:30.499Z,16.70
2017-11-17T21:52:59.307Z,18.77
2017-11-17T21:55:28.145Z,16.42
2017-11-17T21:57:56.939Z,18.55
2017-11-17T22:00:25.738Z,17.42
2017-11-17T22:02:54.588Z,18.08
2017-11-17T22:05:24.168Z,17.35
2017-11-17T22:07:52.735Z,18.08
2017-11-17T22:10:21.537Z,16.30
2017-11-17T22:12:50.728Z,16.75
2017-11-17T22:15:19.534Z,15.77
2017-11-17T22:17:48.353Z,16.23
2017-11-17T22:20:21.593Z,15.80
2017-11-17T22:22:50.402Z,17.20
2017-11-17T22:25:19.210Z,16.62
2017-11-17T22:27:48.015Z,16.55
2017-11-17T22:30:17.626Z,17.33
2017-11-17T22:32:47.227Z,16.85
2017-11-17T22:35:16.843Z,17.95
2017-11-17T22:37:46.418Z,17.70
2017-11-17T22:40:15.215Z,16.90
2017-11-17T22:42:44.066Z,17.77
2017-11-17T22:45:12.871Z,16.92
2017-11-17T22:47:41.719Z,15.95
2017-11-17T22:50:11.280Z,13.62
2017-11-17T22:52:40.117Z,13.02
2017-11-17T22:55:09.679Z,13.20
2017-11-17T22:57:38.484Z,12.93
2017-11-17T23:00:07.300Z,12.37
2017-11-17T23:02:36.866Z,11.30
2017-11-17T23:05:05.707Z,11.90
2017-11-17T23:07:34.511Z,10.13
2017-11-17T23:10:03.366Z,10.70
2017-11-17T23:12:32.940Z,10.30
2017-11-17T23:15:01.752Z,11.02
2017-11-17T23:17:30.611Z,10.88
2017-11-17T23:19:58.804Z,11.90
2017-11-17T23:22:27.653Z,11.60
2017-11-17T23:24:56.463Z,12.02
2017-11-17T23:27:25.265Z,11.25
2017-11-17T23:29:54.154Z,9.80
2017-11-17T23:32:23.798Z,12.43
2017-11-17T23:34:53.421Z,12.98
2017-11-17T23:37:23.025Z,10.50
2017-11-17T23:39:52.638Z,9.95
2017-11-17T23:42:21.448Z,12.40
2017-11-17T23:44:50.255Z,11.35
2017-11-17T23:47:19.115Z,10.32
2017-11-17T23:49:48.706Z,10.75
2017-11-17T23:52:17.247Z,10.88
2017-11-17T23:54:45.427Z,10.77
2017-11-17T23:57:14.987Z,9.60
2017-11-17T23:59:43.831Z,11.52
